Search flights

Madeira Airport, Madeira (LPMA)

Airport Weather & NOTAM's

METAR for:LPMA (Madeira Arpt, MD, PT)
Text:LPMA 210430Z 02008KT 340V070 9999 SCT013 SCT030 24/19 Q1019
Conditions at:0430 UTC 21 Jul 2024
Temperature: 24.0°C ( 75°F)
Dewpoint: 19.0°C ( 66°F) [RH = 74%]
Pressure (altimeter):30.09 inches Hg (1019.0 mb)
Winds:from the NNE (20 degrees) at 9 MPH (8 knots; 4.1 m/s)
Visibility:6 or more sm (10+ km)
Ceiling:at least 12,000 feet AGL
Clouds:scattered clouds at 1300 feet AGL, scattered clouds at 3000 feet AGL
TAF for:LPMA (Madeira Arpt, MD, PT) issued at 2300 UTC 20 Jul 2024
Text:TAF LPMA 202300Z 2100/2124 02012KT 9999 SCT013
Forecast period:0000 UTC 21 July 2024 to 0000 UTC 22 July 2024
Forecast type:FROM: standard forecast or significant change
Winds:from the NNE (20 degrees) at 14 MPH (12 knots; 6.2 m/s)
Visibility:6 or more sm (10+ km)
Ceiling:at least 12,000 feet AGL
Clouds:scattered clouds at 1300 feet AGL
Text:PROB40
Forecast period:0000 UTC 21 July 2024 to 0000 UTC 22 July 2024
Forecast type:TEMPORARY: The following changes expected for less than half the time period
Visibility:4 sm (6 km)
Ceiling:1300 feet AGL
Clouds:scattered clouds at 800 feet AGL, broken clouds at 1300 feet AGL
Weather:-RA -DZ (light rain, light drizzle)
Text:TEMPO 2100/2124 6000 -RADZ SCT008 BKN013
Forecast period:1100 to 2000 UTC 21 July 2024
Forecast type:TEMPORARY: The following changes expected for less than half the time period
Winds:from the N (10 degrees) at 20 MPH (17 knots; 8.7 m/s) gusting to 31 MPH (27 knots; 13.9 m/s)

Live Departures & Arrivals

There are currently no arrivals or departures for this airport.

Departures History (last 12 months)

Flight No. Dest. Aircraft Date
BXS1702 LEAS PMDG 737-8... 2024-07-19 14:58:36
BXS1702 LEBL PMDG 777-3... 2024-07-08 08:54:41
BXS1702 LEMG Airbus A32... 2024-06-29 15:13:03
BXS1702 GCFV PMDG DC-6A... 2024-06-14 13:40:47
BXS2543 LEMD A300 Passe... 2024-06-13 15:50:49
BXS1702 LEGR PMDG 737-8... 2024-06-05 05:22:57
BXS1836 GCHI HJET HA420... 2024-05-26 20:30:04
BXS1702 LEGR PMDG 737-9... 2024-05-26 15:10:43
BXS1702 GCFV Douglas DC... 2024-05-11 08:00:27
BXS1702 LEBL PMDG 737-8... 2024-05-06 05:26:41
BXS1702 LEBL PMDG 737-8... 2024-04-29 05:45:15
BXS1702 LEMG PMDG 737-9... 2024-04-23 14:41:33
BXS1702 EBBR PMDG 737-8... 2024-04-11 08:21:53
BXS1702 EGSS PMDG 737-8... 2024-04-09 05:37:46
BXS1010 LEMD Fenix A320... 2024-03-26 16:50:51
BXS1010 GCXO Airbus A32... 2024-03-11 16:55:37
BXS1009 GCXO Airbus A32... 2024-03-11 16:45:20
BXS1836 LEMD HJET HA420... 2024-03-09 08:44:56
BXS1010 LEMG Airbus A32... 2024-01-31 16:32:51
BXS1005 LEMG PMDG 737-6... 2024-01-31 16:40:03
BXS1702 LEGR PMDG 737-7... 2023-12-31 15:35:50
BXS1702 LEGR PMDG 737-7... 2023-12-14 15:10:05
BXS1010 LEMD PMDG 737-9... 2023-12-10 08:13:36
BXS1702 LEGR PMDG 737-7... 2023-11-27 15:24:49
BXS1702 LEVX PMDG 737-7... 2023-11-23 14:41:07
BXS1702 LEMG PMDG 737-7... 2023-11-01 15:02:20
BXS1702 LEVC PMDG 737-7... 2023-10-24 14:04:47
BXS1702 LEGR Cessna CJ4... 2023-10-15 05:45:25
BXS1010 LEMD Airbus A32... 2023-10-13 16:05:48
BXS1702 LEGR PMDG 737-7... 2023-10-07 14:18:15
BXS1702 LEGR PMDG 737-7... 2023-10-01 14:33:26
BXS1702 LEAS PMDG 737-7... 2023-09-21 05:22:14
BXS1702 LPPT PMDG 737-7... 2023-08-31 14:34:05
BXS1702 LPPT PMDG 737-7... 2023-08-19 06:58:35
BXS1702 LEGR Airbus A32... 2023-08-02 04:55:09
BXS1702 LEGR PMDG 737-7... 2023-07-22 13:43:20

Arrivals History (last 12 months)

Flight No. Origin Aircraft Date
BXS1702 GCTS PMDG DC-6B... 2024-07-07 17:41:25
BXS1702 LPPT PMDG 737-9... 2024-06-14 12:02:02
BXS1702 LEMH PMDG 737-8... 2024-06-04 18:16:10
BXS2543 LEMD A300 Passe... 2024-05-28 17:44:40
BXS1836 LEGR HJET HA420... 2024-05-26 09:56:33
BXS1702 GCFV Douglas DC... 2024-05-26 10:04:32
BXS1702 GCFV Cessna 208... 2024-05-11 07:32:06
BXS1702 GCRR TBM 930 As... 2024-05-05 16:52:40
BXS1702 GCFV TBM 930 As... 2024-04-28 17:48:48
BXS1702 GCTS TBM 930 As... 2024-04-22 17:27:27
BXS1702 GCFV Cessna 208... 2024-04-08 16:18:24
BXS1836 LEMD HJET HA420... 2024-03-08 22:21:42
{}BXS2156 GCLA PMDG 737-8... 2024-02-24 09:32:58
BXS1702 GCFV DA 62 Kenm... 2024-02-04 08:57:28
BXS1010 LEZL PMDG 737-6... 2024-01-30 19:06:27
BXS1836 LEMD PMDG 737-8... 2024-01-28 21:28:47
BXS1702 GCTS Airbus A32... 2024-01-26 08:05:40
BXS1702 GCFV TBM 930 As... 2023-12-30 10:40:36
BXS1702 GCFV TBM 930 As... 2023-12-14 07:42:04
BXS1010 LPFR PMDG 737-8... 2023-12-09 10:44:22
BXS1702 GCFV TBM 930 As... 2023-11-26 18:29:53
BXS1702 GCTS PMDG 737-7... 2023-11-23 07:46:39
BXS1702 GCXO TBM 930 As... 2023-11-01 08:24:30
BXS1702 GCFV NextGen EM... 2023-10-24 07:09:52
BXS1702 GCFV Cessna 208... 2023-10-14 07:37:58
BXS1010 GCFV FenixA320_... 2023-10-13 08:43:45
BXS1702 GCTS TBM 930 As... 2023-10-07 10:57:35
BXS1702 GCFV TBM 930 As... 2023-10-01 07:07:29
BXS1702 GCFV TBM 930 As... 2023-09-20 06:55:07
BXS1702 GCTS TBM 930 As... 2023-08-31 06:38:58
BXS1702 GCXO TBM 930 As... 2023-08-19 06:12:55
BXS1702 GCTS TBM 930 As... 2023-08-01 06:34:39

Runway Information (Airport elevation: 168ft)

Runway 05 Length 9,126ft Width 145ft Elevation 168ft Surface Asphalt Heading 45
Runway 23 Length 9,126ft Width 145ft Elevation 168ft Surface Asphalt Heading 225

Airport Frequencies

Type APP/DEP Frequency 119.605 Mhz
Type APP/DEP Frequency 120.455 Mhz
Type ATIS Frequency 121.630 Mhz
Type ATIS Frequency 130.355 Mhz
Type Tower Frequency 124.660 Mhz
Type CTR Frequency 132.255 Mhz

Airport Navaids

Type VOR-DME Ident FUN Frequency 112200 Khz
Type NDB Ident MAD Frequency 318 Khz